Time;durP1;ratioP1;P1;durP2;ratioP2;P2;SDS_P1;SDS_P2;PMS_P1;PMS_P2;Temp;Humidity;BMP_temperature;BMP_pressure;BME280_temperature;BME280_humidity;BME280_pressure;Samples;Min_cycle;Max_cycle;Signal;HPM_P1;HPM_P2
2021/04/20 00:01:24;;;;;;;7.82;5.18;;;9.30;99.90;;;;;;4938119;29;20393;-77
2021/04/20 00:03:50;;;;;;;5.85;4.78;;;9.30;99.90;;;;;;4937724;29;20114;-80
2021/04/20 00:06:16;;;;;;;5.97;4.80;;;9.20;99.90;;;;;;4937524;29;20119;-85
2021/04/20 00:08:42;;;;;;;6.85;4.90;;;9.20;99.90;;;;;;4937435;29;20038;-85
2021/04/20 00:11:09;;;;;;;5.93;4.68;;;9.20;99.90;;;;;;4938078;29;20484;-82
2021/04/20 00:13:35;;;;;;;6.38;4.55;;;9.20;99.90;;;;;;4937163;29;20563;-85
2021/04/20 00:16:01;;;;;;;6.38;4.90;;;9.20;99.90;;;;;;4924881;29;20032;-85
2021/04/20 00:18:26;;;;;;;5.68;4.10;;;9.20;99.90;;;;;;4937919;29;20166;-85
2021/04/20 00:20:52;;;;;;;5.15;3.83;;;9.20;99.90;;;;;;4920617;29;20050;-85
2021/04/20 00:23:18;;;;;;;6.35;4.10;;;9.20;99.90;;;;;;4937566;29;20040;-85
2021/04/20 00:25:43;;;;;;;5.53;4.57;;;9.10;99.90;;;;;;4937589;29;20043;-84
2021/04/20 00:28:09;;;;;;;5.88;4.68;;;9.20;99.90;;;;;;4936444;29;20027;-82
2021/04/20 00:30:35;;;;;;;5.82;4.60;;;9.20;99.90;;;;;;4920374;29;20043;-85
2021/04/20 00:33:01;;;;;;;5.22;4.18;;;9.10;99.90;;;;;;4936766;29;20333;-83
2021/04/20 00:35:27;;;;;;;6.03;4.88;;;9.10;99.90;;;;;;4937354;29;20055;-83
2021/04/20 00:37:53;;;;;;;5.88;5.25;;;9.10;99.90;;;;;;4937448;29;20040;-84
2021/04/20 00:40:19;;;;;;;6.13;4.70;;;9.10;99.90;;;;;;4937586;29;20031;-85
2021/04/20 00:42:56;;;;;;;5.95;5.00;;;9.10;99.90;;;;;;4937359;29;20048;-85
2021/04/20 00:45:25;;;;;;;6.25;4.78;;;9.10;99.90;;;;;;4937394;29;20032;-84
2021/04/20 00:47:52;;;;;;;6.00;4.55;;;9.10;99.90;;;;;;4936858;29;20032;-84
2021/04/20 00:50:26;;;;;;;6.03;4.47;;;9.00;99.90;;;;;;4936755;29;20024;-84
2021/04/20 00:52:52;;;;;;;6.40;4.55;;;9.00;99.90;;;;;;4937061;29;20036;-84
2021/04/20 00:55:17;;;;;;;7.45;4.55;;;8.90;99.90;;;;;;4936916;29;20043;-84
2021/04/20 00:57:43;;;;;;;6.75;4.40;;;8.90;99.90;;;;;;4935829;29;20039;-76
2021/04/20 01:00:16;;;;;;;7.53;5.28;;;8.80;99.90;;;;;;4936328;29;20059;-80
2021/04/20 01:02:42;;;;;;;6.18;5.10;;;8.80;99.90;;;;;;4936726;29;20028;-84
2021/04/20 01:05:10;;;;;;;5.72;4.70;;;8.80;99.90;;;;;;4936645;29;20040;-76
2021/04/20 01:07:37;;;;;;;8.60;5.38;;;8.80;99.90;;;;;;4937071;29;20075;-83
2021/04/20 01:10:03;;;;;;;6.07;4.70;;;8.80;99.90;;;;;;4936835;29;20178;-84
2021/04/20 01:12:30;;;;;;;6.45;4.35;;;8.80;99.90;;;;;;4935997;29;20442;-84
2021/04/20 01:14:57;;;;;;;8.13;4.80;;;8.80;99.90;;;;;;4935002;29;20044;-84
2021/04/20 01:17:29;;;;;;;6.18;4.40;;;8.80;99.90;;;;;;4935457;29;20190;-84
2021/04/20 01:19:57;;;;;;;5.57;4.22;;;8.80;99.90;;;;;;4935565;29;20050;-85
2021/04/20 01:22:24;;;;;;;5.65;4.63;;;8.70;99.90;;;;;;4918323;29;20465;-82
2021/04/20 01:24:51;;;;;;;6.32;4.32;;;8.70;99.90;;;;;;4935260;29;20100;-84
2021/04/20 01:27:17;;;;;;;4.45;4.03;;;8.60;99.90;;;;;;4918284;29;20036;-85
2021/04/20 01:29:43;;;;;;;5.40;4.45;;;8.70;99.90;;;;;;4936607;29;20682;-85
2021/04/20 01:32:08;;;;;;;6.32;4.85;;;8.70;99.90;;;;;;4935893;29;20429;-85
2021/04/20 01:34:34;;;;;;;6.75;5.53;;;8.70;99.90;;;;;;4936461;29;20067;-82
2021/04/20 01:37:00;;;;;;;8.25;4.90;;;8.70;99.90;;;;;;4936321;29;20544;-83
2021/04/20 01:39:26;;;;;;;5.95;4.82;;;8.70;99.90;;;;;;4936098;29;20039;-76
2021/04/20 01:41:51;;;;;;;7.65;4.97;;;8.70;99.90;;;;;;4935493;29;20110;-77
2021/04/20 01:44:17;;;;;;;6.28;4.95;;;8.70;99.90;;;;;;4934073;29;20032;-83
2021/04/20 01:46:43;;;;;;;6.50;4.70;;;8.60;99.90;;;;;;4936146;29;20036;-78
2021/04/20 01:49:09;;;;;;;13.35;4.75;;;8.60;99.90;;;;;;4936198;29;20030;-84
2021/04/20 01:51:35;;;;;;;7.75;5.30;;;8.60;99.90;;;;;;4936021;29;20035;-82
2021/04/20 01:54:01;;;;;;;7.10;5.40;;;8.60;99.90;;;;;;4935698;29;20040;-83
2021/04/20 01:56:29;;;;;;;10.80;5.70;;;8.60;99.90;;;;;;4935811;29;20091;-83
2021/04/20 01:58:55;;;;;;;9.68;5.15;;;8.50;99.90;;;;;;4935873;29;20028;-83
2021/04/20 02:01:26;;;;;;;8.73;7.15;;;8.50;99.90;;;;;;4935549;29;20020;-85
2021/04/20 02:03:53;;;;;;;10.63;6.75;;;8.40;99.90;;;;;;4935683;29;20036;-85
2021/04/20 02:06:22;;;;;;;9.00;6.15;;;8.40;99.90;;;;;;4935824;29;20027;-83
2021/04/20 02:08:48;;;;;;;10.35;7.47;;;8.40;99.90;;;;;;4935990;29;20031;-84
2021/04/20 02:11:17;;;;;;;11.07;8.43;;;8.40;99.90;;;;;;4935758;29;20071;-81
2021/04/20 02:13:43;;;;;;;11.25;7.88;;;8.40;99.90;;;;;;4936006;29;20047;-84
2021/04/20 02:16:10;;;;;;;12.00;7.50;;;8.40;99.90;;;;;;4935704;29;20177;-83
2021/04/20 02:18:40;;;;;;;9.05;6.85;;;8.40;99.90;;;;;;4935536;29;20043;-84
2021/04/20 02:21:06;;;;;;;8.68;6.57;;;8.30;99.90;;;;;;4918354;29;20044;-82
2021/04/20 02:23:32;;;;;;;11.50;7.32;;;8.30;99.90;;;;;;4935234;29;20086;-84
2021/04/20 02:26:08;;;;;;;9.13;6.45;;;8.30;99.90;;;;;;4934974;29;20042;-84
2021/04/20 02:28:34;;;;;;;9.35;6.30;;;8.30;99.90;;;;;;4935279;29;20531;-76
2021/04/20 02:31:03;;;;;;;8.48;6.45;;;8.30;99.90;;;;;;4935761;29;20036;-84
2021/04/20 02:33:29;;;;;;;8.18;5.85;;;8.30;99.90;;;;;;4917480;29;20067;-82
2021/04/20 02:35:56;;;;;;;9.60;6.63;;;8.30;99.90;;;;;;4935246;29;20036;-81
2021/04/20 02:38:23;;;;;;;9.32;5.88;;;8.20;99.90;;;;;;4935300;29;20119;-83
2021/04/20 02:40:54;;;;;;;7.90;5.57;;;8.20;99.90;;;;;;4939048;29;20046;-78
2021/04/20 02:43:20;;;;;;;6.97;5.18;;;8.10;99.90;;;;;;4933155;29;20087;-83
2021/04/20 02:45:48;;;;;;;7.18;5.47;;;8.20;99.90;;;;;;4934073;29;20110;-81
2021/04/20 02:48:13;;;;;;;7.68;5.15;;;8.10;99.90;;;;;;4933749;29;20028;-84
2021/04/20 02:50:41;;;;;;;8.60;5.90;;;8.10;99.90;;;;;;4933265;29;20031;-84
2021/04/20 02:53:06;;;;;;;9.00;5.20;;;8.10;99.90;;;;;;4934323;29;20118;-74
2021/04/20 02:55:32;;;;;;;6.72;5.57;;;8.10;99.90;;;;;;4933646;29;20126;-82
2021/04/20 02:57:59;;;;;;;10.70;5.70;;;8.10;99.90;;;;;;4934948;29;20431;-84
2021/04/20 03:00:27;;;;;;;7.25;5.30;;;8.10;99.90;;;;;;4934750;29;20044;-84
2021/04/20 03:02:55;;;;;;;11.65;5.45;;;8.10;99.90;;;;;;4934896;29;20034;-83
2021/04/20 03:05:23;;;;;;;6.15;4.45;;;8.10;99.90;;;;;;4934863;29;20044;-84
2021/04/20 03:07:49;;;;;;;10.65;5.47;;;8.10;99.90;;;;;;4934039;29;20027;-83
2021/04/20 03:10:17;;;;;;;6.60;5.18;;;8.10;99.90;;;;;;4935074;29;20038;-83
2021/04/20 03:12:44;;;;;;;13.43;5.38;;;8.10;99.90;;;;;;4934734;29;20038;-83
2021/04/20 03:15:12;;;;;;;8.00;5.30;;;8.10;99.90;;;;;;4934721;29;20072;-79
2021/04/20 03:17:39;;;;;;;7.13;5.60;;;8.10;99.90;;;;;;4934973;29;20039;-79
2021/04/20 03:20:08;;;;;;;7.40;5.70;;;8.10;99.90;;;;;;4934546;29;20055;-84
2021/04/20 03:22:34;;;;;;;6.05;4.88;;;8.10;99.90;;;;;;4934768;29;20064;-84
2021/04/20 03:25:06;;;;;;;6.78;4.88;;;8.00;99.90;;;;;;4934666;29;20039;-84
2021/04/20 03:27:32;;;;;;;6.80;4.53;;;8.00;99.90;;;;;;4934955;29;20070;-85
2021/04/20 03:29:59;;;;;;;7.55;5.25;;;8.00;99.90;;;;;;4934605;29;20043;-85
2021/04/20 03:32:25;;;;;;;17.58;5.82;;;8.00;99.90;;;;;;4934482;29;20035;-84
2021/04/20 03:35:01;;;;;;;10.93;5.65;;;8.00;99.90;;;;;;4934465;29;20046;-79
2021/04/20 03:37:47;;;;;;;8.95;4.82;;;8.00;99.90;;;;;;4934377;29;20040;-84
2021/04/20 03:40:15;;;;;;;8.05;5.07;;;8.00;99.90;;;;;;4934092;29;20074;-75
2021/04/20 03:42:56;;;;;;;7.75;4.88;;;8.00;99.90;;;;;;4934648;29;20052;-85
2021/04/20 03:45:26;;;;;;;9.45;4.80;;;8.00;99.90;;;;;;4934655;29;20033;-85
2021/04/20 03:47:56;;;;;;;6.47;5.03;;;8.10;99.90;;;;;;4934962;29;20082;-85
2021/04/20 03:50:43;;;;;;;8.32;5.07;;;8.00;99.90;;;;;;4934547;29;20090;-85
2021/04/20 03:53:16;;;;;;;8.65;5.18;;;8.00;99.90;;;;;;4934677;29;20169;-84
2021/04/20 03:55:47;;;;;;;11.10;5.13;;;8.10;99.90;;;;;;4934518;29;20039;-84
2021/04/20 03:58:14;;;;;;;5.40;4.78;;;8.10;99.90;;;;;;4935025;29;20074;-83
2021/04/20 04:00:42;;;;;;;7.35;4.72;;;8.10;99.90;;;;;;4938121;29;20504;-85
2021/04/20 04:03:11;;;;;;;6.60;5.05;;;8.10;99.90;;;;;;4945594;29;20040;-85
2021/04/20 04:05:40;;;;;;;6.50;4.63;;;8.20;99.90;;;;;;4933719;29;20036;-83
2021/04/20 04:08:07;;;;;;;16.73;5.97;;;8.20;99.90;;;;;;4938095;29;20457;-84
2021/04/20 04:10:37;;;;;;;6.63;5.32;;;8.20;99.90;;;;;;4950378;29;20039;-84
2021/04/20 04:13:07;;;;;;;6.68;5.05;;;8.20;99.90;;;;;;4937385;29;20031;-85
2021/04/20 04:15:35;;;;;;;5.30;4.47;;;8.20;99.90;;;;;;4937706;29;20083;-77
2021/04/20 04:18:06;;;;;;;9.40;4.90;;;8.30;99.90;;;;;;4945154;29;20047;-83
2021/04/20 04:20:32;;;;;;;5.97;4.93;;;8.40;99.90;;;;;;4948926;29;20479;-85
2021/04/20 04:23:02;;;;;;;7.45;5.78;;;8.40;99.90;;;;;;4937426;29;20272;-84
2021/04/20 04:25:40;;;;;;;6.28;4.90;;;8.40;99.90;;;;;;4937788;29;20024;-84
2021/04/20 04:28:07;;;;;;;9.95;5.32;;;8.40;99.90;;;;;;4937482;29;20032;-83
2021/04/20 04:30:33;;;;;;;6.60;4.88;;;8.40;99.90;;;;;;4937564;29;20440;-84
2021/04/20 04:33:01;;;;;;;6.22;5.28;;;8.40;99.90;;;;;;4937490;29;20060;-81
2021/04/20 04:35:28;;;;;;;12.27;5.32;;;8.40;99.90;;;;;;4937125;29;20047;-85
2021/04/20 04:37:54;;;;;;;8.15;5.47;;;8.40;99.90;;;;;;4936297;29;20031;-84
2021/04/20 04:40:21;;;;;;;7.53;5.05;;;8.40;99.90;;;;;;4936292;29;20039;-82
2021/04/20 04:42:47;;;;;;;8.95;5.10;;;8.50;99.90;;;;;;4936274;29;20118;-85
2021/04/20 04:45:14;;;;;;;11.38;5.25;;;8.50;99.90;;;;;;4936807;29;20120;-85
2021/04/20 04:47:40;;;;;;;9.30;5.22;;;8.60;99.90;;;;;;4936871;29;20118;-84
2021/04/20 04:50:08;;;;;;;9.07;5.82;;;8.70;99.90;;;;;;4937235;29;20395;-76
2021/04/20 04:52:35;;;;;;;7.55;5.22;;;8.90;99.90;;;;;;4924003;29;20035;-79
2021/04/20 04:55:03;;;;;;;7.82;5.75;;;9.00;99.90;;;;;;4937242;29;20047;-82
2021/04/20 04:57:30;;;;;;;11.60;5.45;;;9.20;99.90;;;;;;4936767;29;20540;-84
2021/04/20 04:59:59;;;;;;;6.97;5.10;;;9.40;99.90;;;;;;4936579;29;20043;-83
2021/04/20 05:02:26;;;;;;;13.45;5.43;;;9.80;99.90;;;;;;4936599;29;20028;-83
2021/04/20 05:04:56;;;;;;;10.45;4.85;;;10.10;99.90;;;;;;4936546;29;20038;-84
2021/04/20 05:07:25;;;;;;;11.10;5.15;;;10.50;99.90;;;;;;4936483;29;20031;-85
2021/04/20 05:09:51;;;;;;;23.05;5.03;;;11.10;99.90;;;;;;4936371;29;20028;-83
2021/04/20 05:12:20;;;;;;;17.48;5.30;;;11.80;99.90;;;;;;4936814;29;20055;-82
2021/04/20 05:14:47;;;;;;;13.73;4.57;;;12.50;99.90;;;;;;4935526;29;20071;-83
2021/04/20 05:17:13;;;;;;;6.65;4.38;;;13.20;99.90;;;;;;4936244;29;20064;-83
2021/04/20 05:19:41;;;;;;;12.07;4.05;;;14.00;99.90;;;;;;4936024;29;20082;-75
2021/04/20 05:22:07;;;;;;;11.90;4.30;;;15.00;99.90;;;;;;4936302;29;20023;-81
2021/04/20 05:24:33;;;;;;;11.80;4.55;;;15.90;99.90;;;;;;4936590;29;20090;-83
2021/04/20 05:26:59;;;;;;;9.60;4.40;;;16.90;99.90;;;;;;4935430;29;20083;-83
2021/04/20 05:29:25;;;;;;;8.95;4.18;;;17.70;99.90;;;;;;4935764;29;20032;-84
2021/04/20 05:31:51;;;;;;;6.78;3.67;;;18.60;99.90;;;;;;4919806;29;20467;-82
2021/04/20 05:34:21;;;;;;;7.40;3.40;;;19.20;99.90;;;;;;4942547;29;20485;-83
2021/04/20 05:36:48;;;;;;;4.80;3.50;;;19.80;99.90;;;;;;4934187;29;20397;-85
2021/04/20 05:39:15;;;;;;;6.45;3.90;;;20.50;99.90;;;;;;4935985;29;20063;-76
2021/04/20 05:41:41;;;;;;;6.60;3.88;;;21.00;99.90;;;;;;4935947;29;20114;-85
2021/04/20 05:44:09;;;;;;;5.32;4.18;;;21.40;99.90;;;;;;4934781;29;20087;-81
2021/04/20 05:46:36;;;;;;;12.13;4.68;;;21.80;99.90;;;;;;4935268;29;20520;-84
2021/04/20 05:49:04;;;;;;;11.02;3.75;;;22.10;99.90;;;;;;4935058;29;20127;-85
2021/04/20 05:51:29;;;;;;;7.88;5.45;;;22.60;99.90;;;;;;4934894;29;20102;-85
2021/04/20 05:53:55;;;;;;;12.00;4.57;;;23.10;98.90;;;;;;4934893;29;20036;-84
2021/04/20 05:56:22;;;;;;;15.18;3.92;;;23.80;97.60;;;;;;4933848;29;20397;-79
2021/04/20 05:58:53;;;;;;;10.77;3.75;;;24.30;96.40;;;;;;4916444;29;20030;-78
2021/04/20 06:01:19;;;;;;;7.13;4.37;;;25.00;94.90;;;;;;4934551;29;20042;-82
2021/04/20 06:03:47;;;;;;;6.72;3.90;;;25.60;93.30;;;;;;4936031;29;20056;-83
2021/04/20 06:06:17;;;;;;;16.27;4.10;;;25.90;92.30;;;;;;4932526;29;20032;-82
2021/04/20 06:08:43;;;;;;;7.32;4.03;;;26.40;90.80;;;;;;4921956;29;20064;-84
2021/04/20 06:11:10;;;;;;;7.22;4.05;;;26.60;89.30;;;;;;4934270;29;20456;-85
2021/04/20 06:13:36;;;;;;;8.13;3.88;;;27.20;87.00;;;;;;4934681;29;20039;-84
2021/04/20 06:16:03;;;;;;;14.10;4.20;;;27.30;85.40;;;;;;4932545;29;20039;-82
2021/04/20 06:18:30;;;;;;;11.50;4.75;;;27.80;84.30;;;;;;4934287;29;20031;-83
2021/04/20 06:20:59;;;;;;;8.57;3.97;;;28.30;82.40;;;;;;4935652;29;20523;-84
2021/04/20 06:23:25;;;;;;;6.88;4.00;;;28.70;79.70;;;;;;4933020;29;20039;-83
2021/04/20 06:25:57;;;;;;;10.90;3.88;;;28.80;77.80;;;;;;4940757;29;20035;-82
2021/04/20 06:28:24;;;;;;;11.73;4.43;;;28.60;76.60;;;;;;4939252;29;20028;-84
2021/04/20 06:30:49;;;;;;;10.95;4.30;;;28.50;77.60;;;;;;4934098;29;20070;-81
2021/04/20 06:33:16;;;;;;;12.02;4.05;;;28.50;76.00;;;;;;4937126;29;20070;-83
2021/04/20 06:35:42;;;;;;;9.50;4.35;;;28.50;77.30;;;;;;4934433;29;20052;-83
2021/04/20 06:38:12;;;;;;;18.08;4.63;;;29.20;75.20;;;;;;4936454;29;20036;-84
2021/04/20 06:40:50;;;;;;;8.47;3.97;;;29.70;74.00;;;;;;4930802;29;20074;-83
2021/04/20 06:43:24;;;;;;;20.02;5.53;;;30.10;73.00;;;;;;4916153;29;20353;-83
2021/04/20 06:46:01;;;;;;;16.52;5.00;;;30.10;72.80;;;;;;4903815;29;20089;-82
2021/04/20 06:48:50;;;;;;;14.30;4.63;;;30.40;73.00;;;;;;4932835;29;20035;-83
2021/04/20 06:51:26;;;;;;;28.13;5.78;;;31.00;72.00;;;;;;4933821;29;20023;-83
2021/04/20 06:54:00;;;;;;;11.48;5.55;;;31.60;70.30;;;;;;4930072;29;20127;-76
2021/04/20 06:56:42;;;;;;;21.33;6.28;;;31.60;68.80;;;;;;4927427;29;20036;-78
2021/04/20 06:59:34;;;;;;;21.55;5.90;;;31.50;69.70;;;;;;4931616;29;20107;-76
2021/04/20 07:02:17;;;;;;;19.73;5.45;;;32.00;68.50;;;;;;4929260;29;20027;-81
2021/04/20 07:04:51;;;;;;;26.75;5.25;;;32.40;67.70;;;;;;4933088;29;20063;-81
2021/04/20 07:07:26;;;;;;;17.88;6.10;;;33.30;65.40;;;;;;4933048;29;20036;-83
2021/04/20 07:09:58;;;;;;;16.67;5.45;;;33.30;65.20;;;;;;4933596;29;20040;-82
2021/04/20 07:12:24;;;;;;;14.90;4.22;;;33.40;64.40;;;;;;4932897;29;20027;-80
2021/04/20 07:14:55;;;;;;;16.10;5.43;;;33.50;63.40;;;;;;4932073;29;20448;-82
2021/04/20 07:17:47;;;;;;;10.47;4.93;;;33.80;63.40;;;;;;4930997;29;20031;-80
2021/04/20 07:20:48;;;;;;;11.70;5.25;;;33.20;62.90;;;;;;4933480;29;20386;-85
2021/04/20 07:23:37;;;;;;;6.90;4.78;;;32.70;64.10;;;;;;4872356;29;20074;-80
2021/04/20 07:26:40;;;;;;;18.70;5.18;;;32.80;64.40;;;;;;4917364;29;20052;-84
2021/04/20 07:29:29;;;;;;;11.95;4.20;;;33.10;62.90;;;;;;4930240;29;20046;-83
2021/04/20 07:32:36;;;;;;;7.03;3.58;;;32.50;61.80;;;;;;4931757;29;20024;-84
2021/04/20 07:35:12;;;;;;;9.20;3.03;;;32.30;62.40;;;;;;4907257;29;20158;-85
2021/04/20 07:37:59;;;;;;;4.70;2.75;;;31.10;62.80;;;;;;4920882;29;20051;-84
2021/04/20 07:40:49;;;;;;;4.63;2.88;;;31.00;63.20;;;;;;4936806;29;20048;-83
2021/04/20 07:43:42;;;;;;;6.40;3.60;;;31.20;61.10;;;;;;4934370;29;20048;-85
2021/04/20 07:46:13;;;;;;;4.30;3.05;;;31.60;61.20;;;;;;4937050;29;20039;-84
2021/04/20 07:48:44;;;;;;;17.90;3.95;;;32.00;61.40;;;;;;4936531;29;20024;-85
2021/04/20 07:51:19;;;;;;;7.85;3.20;;;32.30;60.30;;;;;;4935188;29;20034;-84
2021/04/20 07:54:06;;;;;;;9.02;3.38;;;32.20;61.10;;;;;;4931764;29;20048;-84
2021/04/20 07:56:38;;;;;;;4.22;3.42;;;32.20;61.40;;;;;;4932208;29;20054;-76
2021/04/20 07:59:10;;;;;;;4.60;3.20;;;31.50;62.20;;;;;;4906080;29;20032;-85
2021/04/20 08:01:47;;;;;;;8.50;3.70;;;30.20;63.30;;;;;;4932524;29;20493;-86
2021/04/20 08:04:31;;;;;;;6.10;3.03;;;28.80;65.70;;;;;;4934195;29;20497;-75
2021/04/20 08:07:05;;;;;;;7.13;3.03;;;27.50;66.80;;;;;;4932593;29;20055;-85
2021/04/20 08:09:35;;;;;;;3.95;2.80;;;25.90;69.60;;;;;;4934627;29;20044;-85
2021/04/20 08:12:27;;;;;;;5.43;2.72;;;24.90;71.20;;;;;;4928437;29;20039;-84
2021/04/20 08:15:09;;;;;;;10.73;2.40;;;24.00;72.30;;;;;;4936151;29;20103;-75
2021/04/20 08:17:45;;;;;;;7.53;2.67;;;23.30;74.10;;;;;;4934326;29;20027;-76
2021/04/20 08:20:14;;;;;;;4.07;3.05;;;22.60;75.50;;;;;;4920669;29;20032;-75
2021/04/20 08:22:42;;;;;;;4.20;3.15;;;22.10;76.40;;;;;;4933180;29;20126;-76
2021/04/20 08:25:11;;;;;;;4.93;3.72;;;22.00;77.80;;;;;;4936384;29;20158;-77
2021/04/20 08:27:53;;;;;;;9.68;3.20;;;22.00;77.50;;;;;;4929484;29;20048;-83
2021/04/20 08:31:05;;;;;;;5.95;3.83;;;21.70;78.10;;;;;;4934624;29;20027;-83
2021/04/20 08:33:35;;;;;;;7.18;3.58;;;21.40;79.00;;;;;;4840180;29;20038;-84
2021/04/20 08:36:10;;;;;;;10.23;3.28;;;21.20;80.10;;;;;;4842152;29;20564;-77
2021/04/20 08:39:01;;;;;;;3.75;2.92;;;21.00;80.70;;;;;;4893911;29;20406;-76
2021/04/20 08:41:33;;;;;;;8.38;3.15;;;20.80;80.60;;;;;;4918591;29;20043;-79
2021/04/20 08:44:30;;;;;;;8.07;3.33;;;21.00;81.30;;;;;;4931064;29;20055;-81
2021/04/20 08:47:28;;;;;;;6.00;3.50;;;20.70;82.50;;;;;;4935673;29;20408;-84
2021/04/20 08:50:17;;;;;;;7.82;4.03;;;20.50;83.50;;;;;;4931445;29;20269;-87
2021/04/20 08:53:01;;;;;;;5.40;3.50;;;20.20;83.70;;;;;;4934209;29;20055;-82
2021/04/20 08:56:07;;;;;;;7.97;3.50;;;20.20;83.20;;;;;;4934994;29;20038;-83
2021/04/20 08:58:51;;;;;;;3.80;2.55;;;20.30;83.30;;;;;;4881964;29;20396;-84
2021/04/20 09:01:42;;;;;;;6.57;3.33;;;20.40;82.30;;;;;;4934324;29;20043;-84
2021/04/20 09:04:41;;;;;;;5.00;3.30;;;20.50;83.30;;;;;;4935151;29;20737;-82
2021/04/20 09:07:30;;;;;;;11.52;3.70;;;20.70;83.60;;;;;;4935713;29;20106;-77
2021/04/20 09:10:03;;;;;;;7.43;3.13;;;20.70;83.70;;;;;;4936164;29;20639;-83
2021/04/20 09:12:30;;;;;;;7.47;3.88;;;20.60;84.70;;;;;;4932796;29;20079;-83
2021/04/20 09:14:59;;;;;;;8.07;3.28;;;20.70;83.70;;;;;;4935090;29;20131;-82
2021/04/20 09:17:30;;;;;;;3.88;3.50;;;20.70;84.40;;;;;;4934358;29;20103;-83
2021/04/20 09:19:58;;;;;;;4.20;3.53;;;20.70;82.80;;;;;;4935374;29;20063;-82
2021/04/20 09:22:48;;;;;;;5.35;3.40;;;20.60;84.10;;;;;;4935017;29;20039;-83
2021/04/20 09:25:31;;;;;;;10.38;4.15;;;20.50;84.30;;;;;;4920401;29;20024;-81
2021/04/20 09:28:05;;;;;;;5.47;3.75;;;20.30;84.00;;;;;;4930076;29;20042;-83
2021/04/20 09:30:43;;;;;;;6.35;3.45;;;20.00;84.90;;;;;;4934032;29;20067;-82
2021/04/20 09:33:17;;;;;;;6.05;3.25;;;19.90;85.90;;;;;;4935468;29;20040;-82
2021/04/20 09:35:44;;;;;;;15.50;3.55;;;20.00;85.80;;;;;;4932710;29;20114;-76
2021/04/20 09:38:12;;;;;;;7.72;3.80;;;20.00;85.20;;;;;;4935968;29;20460;-76
2021/04/20 09:40:40;;;;;;;2.83;2.50;;;20.10;84.70;;;;;;4936208;29;20440;-78
2021/04/20 09:43:31;;;;;;;11.93;2.85;;;20.20;83.10;;;;;;4935822;29;20055;-83
2021/04/20 09:46:28;;;;;;;4.43;2.50;;;20.40;83.80;;;;;;4935353;29;20070;-82
2021/04/20 09:49:25;;;;;;;3.72;2.08;;;20.40;82.00;;;;;;4925947;29;20118;-83
2021/04/20 09:51:55;;;;;;;3.03;2.40;;;20.70;81.80;;;;;;4903489;29;20503;-83
2021/04/20 09:54:36;;;;;;;5.20;1.88;;;20.60;81.10;;;;;;4934890;29;20071;-82
2021/04/20 09:57:07;;;;;;;2.75;2.20;;;20.40;80.00;;;;;;4933234;29;20040;-83
2021/04/20 09:59:42;;;;;;;4.15;2.17;;;20.20;81.80;;;;;;4933532;29;20114;-83
2021/04/20 10:02:27;;;;;;;5.50;1.98;;;20.10;82.30;;;;;;4929484;29;20023;-79
2021/04/20 10:05:17;;;;;;;2.03;1.65;;;20.00;81.90;;;;;;4929691;29;20568;-82
2021/04/20 10:08:14;;;;;;;3.00;2.08;;;19.70;81.40;;;;;;4925320;29;20145;-82
2021/04/20 10:10:42;;;;;;;7.00;2.40;;;19.50;82.10;;;;;;4933866;29;20454;-82
2021/04/20 10:13:40;;;;;;;4.25;2.20;;;19.60;82.20;;;;;;4933892;29;20024;-82
2021/04/20 10:16:12;;;;;;;3.80;2.33;;;19.70;82.80;;;;;;4933228;29;20036;-82
2021/04/20 10:19:16;;;;;;;4.72;4.07;;;19.70;82.90;;;;;;4934352;29;20046;-80
2021/04/20 10:22:02;;;;;;;2.63;2.20;;;19.60;82.80;;;;;;4912141;29;20035;-81
2021/04/20 10:24:30;;;;;;;2.67;2.47;;;19.50;83.40;;;;;;4917604;29;20059;-84
2021/04/20 10:26:56;;;;;;;6.60;3.35;;;19.40;83.00;;;;;;4932316;29;20027;-78
2021/04/20 10:29:28;;;;;;;2.83;2.40;;;19.40;83.90;;;;;;4934573;29;20111;-82
2021/04/20 10:31:57;;;;;;;;;;;19.40;83.00;;;;;;4935275;29;20040;-82
2021/04/20 10:34:24;;;;;;;4.03;2.65;;;19.30;83.90;;;;;;4932968;29;19922;-83
2021/04/20 10:36:55;;;;;;;3.75;2.60;;;19.00;84.40;;;;;;4934746;29;20469;-81
2021/04/20 10:39:23;;;;;;;3.92;3.30;;;18.80;85.30;;;;;;4933309;29;20512;-83
2021/04/20 10:41:51;;;;;;;7.78;4.15;;;18.70;85.50;;;;;;4917640;29;20031;-83
2021/04/20 10:44:19;;;;;;;4.75;3.65;;;18.60;86.60;;;;;;4935014;29;20131;-81
2021/04/20 10:46:51;;;;;;;4.65;3.50;;;18.40;88.40;;;;;;4933248;29;20163;-82
2021/04/20 10:49:20;;;;;;;5.88;3.30;;;18.40;89.30;;;;;;4924389;29;20032;-81
2021/04/20 10:51:50;;;;;;;4.95;4.10;;;18.40;90.00;;;;;;4920983;29;20492;-80
2021/04/20 10:54:20;;;;;;;9.30;3.75;;;18.40;89.80;;;;;;4932778;29;20078;-82
2021/04/20 10:56:53;;;;;;;4.68;3.38;;;18.50;89.70;;;;;;4931915;29;20122;-83
2021/04/20 10:59:36;;;;;;;3.60;3.25;;;18.60;89.20;;;;;;4929480;29;20035;-87
2021/04/20 11:02:25;;;;;;;6.00;3.65;;;18.70;88.60;;;;;;4932365;29;20059;-85
2021/04/20 11:04:53;;;;;;;4.57;3.88;;;18.90;88.20;;;;;;4911062;29;20060;-85
2021/04/20 11:07:32;;;;;;;4.60;3.80;;;19.00;89.70;;;;;;4930622;29;20039;-83
2021/04/20 11:10:12;;;;;;;8.10;4.40;;;19.30;88.10;;;;;;4913285;29;20039;-84
2021/04/20 11:12:43;;;;;;;9.18;6.38;;;19.60;85.80;;;;;;4929487;29;20040;-80
2021/04/20 11:15:13;;;;;;;6.60;5.03;;;19.70;85.60;;;;;;4929464;29;20051;-79
2021/04/20 11:17:49;;;;;;;10.23;6.10;;;20.00;86.50;;;;;;4934481;29;20047;-84
2021/04/20 11:20:37;;;;;;;8.45;5.75;;;20.10;86.30;;;;;;4929156;29;20028;-85
2021/04/20 11:23:09;;;;;;;6.97;4.97;;;20.00;86.50;;;;;;4928540;29;20027;-86
2021/04/20 11:25:49;;;;;;;;;;;19.80;87.00;;;;;;4931440;29;20032;-85
2021/04/20 11:28:47;;;;;;;16.77;9.32;;;20.00;87.60;;;;;;4933702;29;19914;-85
2021/04/20 11:31:19;;;;;;;20.40;10.25;;;20.20;84.90;;;;;;4925229;29;20035;-85
2021/04/20 11:33:50;;;;;;;10.95;7.43;;;20.20;84.60;;;;;;4931215;29;20137;-83
2021/04/20 11:40:00;;;;;;;10.07;6.57;;;19.90;84.90;;;;;;4878060;29;20068;-77
2021/04/20 11:42:44;;;;;;;12.10;6.60;;;19.60;84.90;;;;;;4887596;29;20812;-87
2021/04/20 11:45:13;;;;;;;13.57;9.27;;;19.40;84.70;;;;;;4891969;29;20401;-82
2021/04/20 11:48:10;;;;;;;11.38;7.82;;;19.00;85.90;;;;;;4893573;29;20533;-87
2021/04/20 11:50:38;;;;;;;10.38;6.28;;;18.70;86.40;;;;;;4886720;29;20041;-85
2021/04/20 11:53:08;;;;;;;8.73;5.35;;;18.50;85.80;;;;;;4893645;29;20070;-87
2021/04/20 11:55:43;;;;;;;7.55;5.22;;;18.30;87.50;;;;;;4881421;29;20513;-84
2021/04/20 11:58:14;;;;;;;9.38;4.93;;;18.30;88.80;;;;;;4883682;29;20064;-81
2021/04/20 12:00:41;;;;;;;8.57;6.63;;;18.20;89.70;;;;;;4886272;29;20522;-87
2021/04/20 12:03:16;;;;;;;9.55;6.22;;;18.30;89.20;;;;;;4887838;29;20041;-78
2021/04/20 12:05:44;;;;;;;11.45;5.80;;;18.20;89.50;;;;;;4883989;29;20131;-78
2021/04/20 12:08:20;;;;;;;14.48;6.82;;;18.20;90.10;;;;;;4887633;29;20041;-85
2021/04/20 12:10:50;;;;;;;8.10;5.93;;;18.30;89.70;;;;;;4918671;29;20156;-81
2021/04/20 12:13:21;;;;;;;14.25;5.47;;;18.30;88.90;;;;;;4928713;29;20036;-84
2021/04/20 12:15:54;;;;;;;9.80;5.68;;;18.40;90.00;;;;;;4930819;29;20152;-84
2021/04/20 12:18:20;;;;;;;9.73;6.97;;;18.40;88.80;;;;;;4928022;29;20024;-82
2021/04/20 12:20:48;;;;;;;17.67;6.10;;;18.40;89.30;;;;;;4913701;29;20054;-85
2021/04/20 12:23:20;;;;;;;18.50;10.75;;;18.50;88.70;;;;;;4931099;29;20042;-78
2021/04/20 12:25:52;;;;;;;18.92;10.77;;;18.50;88.50;;;;;;4928851;29;20283;-85
2021/04/20 12:28:19;;;;;;;11.95;8.00;;;18.60;88.70;;;;;;4930141;29;20031;-84
2021/04/20 12:30:47;;;;;;;22.55;11.88;;;18.60;90.40;;;;;;4924037;29;20493;-85
2021/04/20 12:33:29;;;;;;;19.60;9.68;;;18.70;89.10;;;;;;4927418;29;20119;-85
2021/04/20 12:35:56;;;;;;;15.38;9.38;;;18.70;90.00;;;;;;4927585;29;20048;-85
2021/04/20 12:38:24;;;;;;;17.83;10.07;;;18.80;90.10;;;;;;4926281;29;20031;-84
2021/04/20 12:40:53;;;;;;;15.80;7.78;;;18.90;90.20;;;;;;4931011;29;20039;-84
2021/04/20 12:43:20;;;;;;;13.20;8.13;;;18.90;90.60;;;;;;4923658;29;20048;-86
2021/04/20 12:45:47;;;;;;;14.20;7.97;;;18.90;90.40;;;;;;4934029;29;20039;-85
2021/04/20 12:48:16;;;;;;;16.25;9.85;;;18.90;90.50;;;;;;4928590;29;20032;-84
2021/04/20 12:50:46;;;;;;;18.77;11.85;;;19.10;90.60;;;;;;4923643;29;20094;-78
2021/04/20 12:53:15;;;;;;;27.02;11.15;;;19.20;88.80;;;;;;4929643;29;20028;-83
2021/04/20 12:55:43;;;;;;;16.67;7.90;;;19.10;89.60;;;;;;4933463;29;20063;-82
2021/04/20 12:58:15;;;;;;;17.20;10.15;;;19.10;90.30;;;;;;4936447;29;20059;-82
2021/04/20 13:00:41;;;;;;;12.65;8.00;;;19.10;90.00;;;;;;4934639;29;20520;-82
2021/04/20 13:03:08;;;;;;;33.70;8.52;;;18.90;90.40;;;;;;4935953;29;20516;-86
2021/04/20 13:05:40;;;;;;;19.63;11.63;;;18.80;91.60;;;;;;4930551;29;20050;-86
2021/04/20 13:08:09;;;;;;;19.60;11.68;;;18.60;90.80;;;;;;4934902;29;20031;-80
2021/04/20 13:10:35;;;;;;;18.75;9.75;;;18.50;90.30;;;;;;4930148;29;20054;-83
2021/04/20 13:13:06;;;;;;;23.85;11.05;;;18.40;91.60;;;;;;4917917;29;20031;-83
2021/04/20 13:15:33;;;;;;;21.17;9.73;;;18.60;91.20;;;;;;4931489;29;20518;-84
2021/04/20 13:18:02;;;;;;;18.00;10.98;;;18.50;91.90;;;;;;4935870;29;20024;-82